Terminal Aerodrome Forecast
Issued by NWS Sterling, VA

Current Version | Previous Version | Text Only | Print | Product List | Glossary Off
Versions: 1 2 3 4 5 6 7 8 9 10 11 12 13 14 15 16 17

000
FTUS41 KLWX 270500
TAFMRB
TAF
KMRB 270536Z 2706/2806 00000KT 2SM BR BKN035
     FM271200 00000KT P6SM OVC035
     FM271400 00000KT P6SM OVC030
     FM272000 30007KT P6SM BKN025
     FM272200 30008KT P6SM BKN035
     FM280400 30009KT P6SM SCT050=

USA.gov is the U.S. government's official web portal to all federal, state and local government web resources and services.